Terminal Aerodrome Forecast
Issued by NWS Wakefield, VA

Home | Current Version | Previous Version | Text Only | Print | Product List | Glossary On
Versions: 1 2 3 4 5 6 7 8 9 10 11 12 13
000
FTUS41 KAKQ 041132
TAFSBY
TAF
KSBY 041132Z 0412/0512 22005KT P6SM SKC
     FM041600 22010G17KT P6SM SCT070
     FM042300 20005KT P6SM SKC=

USA.gov is the U.S. government's official web portal to all federal, state and local government web resources and services.